createdAt,value
2017-06-16T00:01:31.099Z,5
2017-06-16T00:11:31.121Z,5
2017-06-16T00:21:31.119Z,6
2017-06-16T00:31:31.178Z,6
2017-06-16T00:41:31.171Z,6
2017-06-16T00:51:31.147Z,5
2017-06-16T01:01:31.129Z,4
2017-06-16T01:11:31.155Z,4
2017-06-16T01:21:31.133Z,5
2017-06-16T01:31:31.104Z,5
2017-06-16T01:41:31.123Z,4
2017-06-16T01:51:31.110Z,5
2017-06-16T02:01:31.148Z,6
2017-06-16T02:11:31.157Z,7
2017-06-16T02:21:31.139Z,8
2017-06-16T02:31:31.128Z,8
2017-06-16T02:41:31.127Z,8
2017-06-16T02:51:31.112Z,10
2017-06-16T03:01:31.215Z,8
2017-06-16T03:11:31.107Z,10
2017-06-16T03:21:31.097Z,10
2017-06-16T03:31:31.115Z,11
2017-06-16T03:41:31.211Z,10
2017-06-16T03:51:31.121Z,11
2017-06-16T04:01:31.163Z,11
2017-06-16T04:11:31.119Z,11
2017-06-16T04:21:31.158Z,11
2017-06-16T04:31:31.135Z,12
2017-06-16T04:41:31.081Z,12
2017-06-16T04:51:31.099Z,10
2017-06-16T05:01:31.178Z,11
2017-06-16T05:11:31.113Z,10
2017-06-16T05:21:31.102Z,10
2017-06-16T05:31:31.160Z,11
2017-06-16T05:41:31.097Z,10
2017-06-16T05:51:31.141Z,11
2017-06-16T06:01:31.177Z,11
2017-06-16T06:11:31.129Z,11
2017-06-16T06:21:31.132Z,10
2017-06-16T06:31:31.140Z,10
2017-06-16T06:41:31.103Z,11
2017-06-16T06:51:31.138Z,11
2017-06-16T07:01:31.181Z,11
2017-06-16T07:11:31.129Z,10
2017-06-16T07:21:31.155Z,9
2017-06-16T07:31:31.130Z,9
2017-06-16T07:41:31.108Z,8
2017-06-16T07:51:31.130Z,7
2017-06-16T08:01:31.194Z,5
2017-06-16T08:11:31.166Z,5
2017-06-16T08:21:31.191Z,5
2017-06-16T08:31:31.231Z,5
2017-06-16T08:41:31.192Z,5
2017-06-16T08:51:31.206Z,4
2017-06-16T09:01:31.733Z,3
2017-06-16T09:11:31.177Z,3
2017-06-16T09:21:31.144Z,2
2017-06-16T09:31:31.188Z,4
2017-06-16T09:41:31.176Z,3
2017-06-16T09:51:31.148Z,3
2017-06-16T10:01:31.188Z,3
2017-06-16T10:11:31.200Z,3
2017-06-16T10:21:31.279Z,3
2017-06-16T10:31:31.269Z,3
2017-06-16T10:41:31.204Z,3
2017-06-16T10:51:31.200Z,3
2017-06-16T11:01:31.163Z,3
2017-06-16T11:11:31.221Z,3
2017-06-16T11:21:31.172Z,2
2017-06-16T11:31:31.172Z,3
2017-06-16T11:41:31.149Z,4
2017-06-16T11:51:31.154Z,3
2017-06-16T12:01:31.177Z,3
2017-06-16T12:11:31.226Z,3
2017-06-16T12:21:31.159Z,2
2017-06-16T12:31:31.203Z,2
2017-06-16T12:41:31.177Z,2
2017-06-16T12:51:31.238Z,2
2017-06-16T13:01:31.232Z,2
2017-06-16T13:11:31.196Z,2
2017-06-16T13:21:31.200Z,1
2017-06-16T13:31:31.219Z,2
2017-06-16T13:41:31.207Z,2
2017-06-16T13:51:31.266Z,2
2017-06-16T14:01:31.198Z,3
2017-06-16T14:11:31.180Z,2
2017-06-16T14:21:31.211Z,2
2017-06-16T14:31:31.193Z,2
2017-06-16T14:41:31.227Z,2
2017-06-16T14:51:31.312Z,2
2017-06-16T15:01:31.202Z,2
2017-06-16T15:11:31.176Z,2
2017-06-16T15:21:31.169Z,2
2017-06-16T15:31:31.213Z,3
2017-06-16T15:41:31.215Z,3
2017-06-16T15:51:31.222Z,3
2017-06-16T16:01:31.189Z,2
2017-06-16T16:11:31.189Z,2
2017-06-16T16:21:31.227Z,3
2017-06-16T16:31:31.234Z,2
2017-06-16T16:41:31.215Z,2
2017-06-16T16:51:31.213Z,2
2017-06-16T17:01:31.230Z,2
2017-06-16T17:11:31.243Z,3
2017-06-16T17:21:31.465Z,3
2017-06-16T17:31:31.249Z,2
2017-06-16T17:41:31.352Z,2
2017-06-16T17:51:42.104Z,2
2017-06-16T18:01:31.296Z,2
2017-06-16T18:11:31.288Z,3
2017-06-16T18:21:31.291Z,3
2017-06-16T18:31:31.366Z,2
2017-06-16T18:41:31.278Z,2
2017-06-16T18:51:31.315Z,2
2017-06-16T19:01:31.263Z,3
2017-06-16T19:11:31.251Z,3
2017-06-16T19:21:31.338Z,2
2017-06-16T19:31:31.296Z,2
2017-06-16T19:41:31.773Z,3
2017-06-16T19:51:31.891Z,3
2017-06-16T20:01:31.282Z,2
2017-06-16T20:11:31.299Z,2
2017-06-16T20:21:31.307Z,2
2017-06-16T20:31:31.341Z,2
2017-06-16T20:41:31.488Z,2
2017-06-16T20:51:31.372Z,2
2017-06-16T21:01:31.500Z,3
2017-06-16T21:11:31.339Z,3
2017-06-16T21:21:31.291Z,2
2017-06-16T21:31:31.327Z,2
2017-06-16T21:41:31.322Z,3
2017-06-16T21:51:31.364Z,3
2017-06-16T22:01:31.330Z,2
2017-06-16T22:11:31.313Z,3
2017-06-16T22:21:31.350Z,3
2017-06-16T22:31:31.310Z,3
2017-06-16T22:41:31.382Z,3
2017-06-16T22:51:31.313Z,3
2017-06-16T23:01:31.262Z,3
2017-06-16T23:11:31.295Z,3
2017-06-16T23:21:31.324Z,3
2017-06-16T23:31:31.266Z,4
2017-06-16T23:41:31.369Z,4
2017-06-16T23:51:31.357Z,3
